createdAt,value
2023-07-04T00:07:07.621Z,2.2
2023-07-04T00:17:13.598Z,1.7
2023-07-04T00:27:18.676Z,1.8
2023-07-04T00:37:24.731Z,2.1
2023-07-04T00:47:30.757Z,1.7
2023-07-04T00:57:36.803Z,2.1
2023-07-04T01:07:42.844Z,1.8
2023-07-04T01:17:48.879Z,2.1
2023-07-04T01:27:54.933Z,2.5
2023-07-04T01:38:00.969Z,2.8
2023-07-04T01:48:07.052Z,2.7
2023-07-04T01:58:13.081Z,2.8
2023-07-04T02:08:19.134Z,2.9
2023-07-04T02:18:25.191Z,2.5
2023-07-04T02:28:31.224Z,2.5
2023-07-04T02:38:36.292Z,2.7
2023-07-04T02:48:42.331Z,2.6
2023-07-04T02:58:48.377Z,2.8
2023-07-04T03:08:54.418Z,3.6
2023-07-04T03:19:00.459Z,3.2
2023-07-04T03:29:06.516Z,3.5
2023-07-04T03:39:12.569Z,3.2
2023-07-04T03:49:18.604Z,3.3
2023-07-04T03:59:24.725Z,3
2023-07-04T04:09:30.689Z,3.2
2023-07-04T04:19:36.739Z,3.6
2023-07-04T04:29:42.789Z,4.2
2023-07-04T04:39:48.854Z,4
2023-07-04T04:49:53.896Z,3.9
2023-07-04T05:00:00.018Z,4.4
2023-07-04T05:10:05.992Z,3.8
2023-07-04T05:20:12.025Z,3.7
2023-07-04T05:30:18.085Z,3.5
2023-07-04T05:40:24.133Z,3.5
2023-07-04T05:50:30.184Z,3.7
2023-07-04T06:00:36.224Z,4
2023-07-04T06:10:42.256Z,4.8
2023-07-04T06:20:48.304Z,4.2
2023-07-04T06:30:54.360Z,4.9
2023-07-04T06:41:00.403Z,5.4
2023-07-04T06:51:06.458Z,5.9
2023-07-04T07:01:11.518Z,6.4
2023-07-04T07:11:17.558Z,6.7
2023-07-04T07:21:23.666Z,6.8
2023-07-04T07:31:29.675Z,6.9
2023-07-04T07:41:35.680Z,5.9
2023-07-04T07:51:41.745Z,6.3
2023-07-04T08:01:47.808Z,5.8
2023-07-04T08:11:53.860Z,6.4
2023-07-04T08:21:59.881Z,5.7
2023-07-04T08:32:05.911Z,6.2
2023-07-04T08:42:11.997Z,4.7
2023-07-04T08:52:18.031Z,4.9
2023-07-04T09:02:24.054Z,5.1
2023-07-04T09:12:29.117Z,4.4
2023-07-04T09:22:35.160Z,4.8
2023-07-04T09:32:41.290Z,4.7
2023-07-04T09:42:47.459Z,4.5
2023-07-04T09:52:53.507Z,4.5
2023-07-04T10:02:59.547Z,4.7
2023-07-04T10:13:05.581Z,4.3
2023-07-04T10:23:11.632Z,3.5
2023-07-04T10:33:17.692Z,3.9
2023-07-04T10:43:23.660Z,4.4
2023-07-04T10:53:29.650Z,4.2
2023-07-04T11:03:35.746Z,4.2
2023-07-04T11:13:41.751Z,3.7
2023-07-04T11:23:46.724Z,3.6
2023-07-04T11:33:52.852Z,4.1
2023-07-04T11:43:58.810Z,4
2023-07-04T11:54:04.912Z,4.2
2023-07-04T12:04:10.983Z,3.6
2023-07-04T12:14:16.951Z,3.4
2023-07-04T12:24:23.027Z,3.9
2023-07-04T12:34:29.069Z,3.6
2023-07-04T12:44:35.086Z,3.7
2023-07-04T12:54:41.191Z,3.5
2023-07-04T13:04:47.183Z,3.6
2023-07-04T13:14:53.228Z,3.6
2023-07-04T13:24:59.271Z,3.8
2023-07-04T13:45:10.379Z,3.6
2023-07-04T13:55:16.417Z,4.1
2023-07-04T14:05:22.470Z,3.5
2023-07-04T14:15:28.513Z,3.5
2023-07-04T14:25:34.560Z,4.3
2023-07-04T14:35:40.609Z,3.8
2023-07-04T14:45:46.737Z,3.9
2023-07-04T14:55:52.702Z,3.9
2023-07-04T15:05:58.779Z,3.9
2023-07-04T15:16:04.793Z,4.4
2023-07-04T15:26:10.842Z,4.2
2023-07-04T15:36:16.915Z,4
2023-07-04T15:46:22.015Z,4.5
2023-07-04T15:56:28.003Z,4.2
2023-07-04T16:06:34.139Z,4.6
2023-07-04T16:16:40.236Z,5.3
2023-07-04T16:26:46.290Z,5.6
2023-07-04T16:36:52.216Z,5.2
2023-07-04T16:46:58.268Z,5.5
2023-07-04T16:57:04.291Z,5.2
2023-07-04T17:07:10.313Z,5.6
2023-07-04T17:17:16.367Z,5.2
2023-07-04T17:27:22.502Z,5.6
2023-07-04T17:37:28.537Z,5.6
2023-07-04T17:47:34.713Z,5.3
2023-07-04T17:57:39.723Z,5.3
2023-07-04T18:07:45.781Z,5.3
2023-07-04T18:17:51.805Z,5.2
2023-07-04T18:27:57.947Z,5.5
2023-07-04T18:38:03.745Z,5.2
2023-07-04T18:48:09.839Z,5.1
2023-07-04T18:58:15.839Z,5.5
2023-07-04T19:08:21.921Z,5.2
2023-07-04T19:18:27.939Z,5
2023-07-04T19:28:33.993Z,5.6
2023-07-04T19:38:40.035Z,5.3
2023-07-04T19:48:46.177Z,5.3
2023-07-04T19:58:52.198Z,5.4
2023-07-04T20:08:57.298Z,5.5
2023-07-04T20:19:03.276Z,5.7
2023-07-04T20:29:09.311Z,5.4
2023-07-04T20:39:15.328Z,5.7
2023-07-04T20:49:21.447Z,6.5
2023-07-04T20:59:27.395Z,6.3
2023-07-04T21:09:33.453Z,6.5
2023-07-04T21:19:39.479Z,6.8
2023-07-04T21:29:45.527Z,7.3
2023-07-04T21:39:51.574Z,7.3
2023-07-04T21:49:57.722Z,8
2023-07-04T22:00:03.792Z,8.1
2023-07-04T22:10:09.712Z,7.8
2023-07-04T22:20:14.823Z,7.1
2023-07-04T22:30:20.810Z,7.2
2023-07-04T22:40:26.863Z,8.2
2023-07-04T22:50:32.958Z,8.3
2023-07-04T23:00:38.945Z,8
2023-07-04T23:10:45.001Z,8.5
2023-07-04T23:20:51.053Z,8.4
2023-07-04T23:30:57.178Z,8.2
2023-07-04T23:41:03.183Z,7.6
2023-07-04T23:51:09.216Z,7.6
